createdAt,value
2019-05-17T00:00:01.521Z,90.06
2019-05-17T00:04:07.029Z,89.99
2019-05-17T00:08:08.644Z,89.69
2019-05-17T00:12:10.622Z,89.80
2019-05-17T00:16:12.533Z,90.08
2019-05-17T00:20:17.334Z,89.96
2019-05-17T00:24:19.478Z,89.61
2019-05-17T00:28:21.381Z,89.76
2019-05-17T00:32:23.278Z,90.29
2019-05-17T00:36:26.910Z,90.19
2019-05-17T00:40:30.014Z,90.22
2019-05-17T00:44:31.908Z,90.47
2019-05-17T00:48:33.907Z,90.54
2019-05-17T00:52:36.788Z,90.46
2019-05-17T00:56:39.924Z,90.60
2019-05-17T01:00:41.835Z,90.35
2019-05-17T01:04:43.756Z,90.65
2019-05-17T01:08:47.482Z,90.50
2019-05-17T01:12:49.322Z,90.44
2019-05-17T01:16:51.306Z,90.40
2019-05-17T01:20:53.219Z,90.10
2019-05-17T01:24:56.958Z,89.87
2019-05-17T01:28:59.173Z,90.33
2019-05-17T01:33:01.215Z,90.58
2019-05-17T01:37:03.123Z,90.46
2019-05-17T01:41:07.011Z,90.73
2019-05-17T01:45:10.325Z,90.75
2019-05-17T01:49:12.246Z,90.93
2019-05-17T01:53:16.455Z,90.97
2019-05-17T01:57:17.760Z,91.33
2019-05-17T02:01:19.650Z,91.03
2019-05-17T02:05:21.642Z,90.98
2019-05-17T02:09:34.917Z,90.49
2019-05-17T02:13:27.438Z,90.56
2019-05-17T02:17:29.488Z,90.68
2019-05-17T02:21:31.413Z,90.95
2019-05-17T02:25:33.310Z,91.13
2019-05-17T02:29:35.220Z,91.21
2019-05-17T02:33:37.192Z,90.74
2019-05-17T02:37:42.953Z,90.41
2019-05-17T02:41:44.242Z,90.17
2019-05-17T02:45:46.142Z,90.50
2019-05-17T02:49:48.093Z,90.15
2019-05-17T02:53:52.553Z,90.08
2019-05-17T02:57:53.616Z,89.78
2019-05-17T03:01:55.497Z,89.85
2019-05-17T03:05:57.413Z,89.88
2019-05-17T03:10:13.888Z,89.52
2019-05-17T03:14:04.119Z,89.83
2019-05-17T03:18:06.320Z,90.09
2019-05-17T03:22:13.142Z,89.84
2019-05-17T03:26:15.269Z,90.14
2019-05-17T03:30:19.275Z,90.75
2019-05-17T03:34:26.708Z,90.82
2019-05-17T03:38:27.527Z,90.40
2019-05-17T03:42:29.424Z,90.37
2019-05-17T03:46:33.462Z,90.42
2019-05-17T03:50:35.402Z,90.72
2019-05-17T03:54:37.283Z,90.69
2019-05-17T03:58:39.178Z,90.43
2019-05-17T04:02:44.621Z,90.45
2019-05-17T04:06:44.690Z,90.79
2019-05-17T04:10:46.588Z,90.94
2019-05-17T04:14:48.506Z,90.71
2019-05-17T04:18:53.316Z,90.51
2019-05-17T04:22:58.641Z,90.35
2019-05-17T04:27:03.627Z,90.44
2019-05-17T04:31:05.091Z,90.32
2019-05-17T04:35:07.306Z,90.40
2019-05-17T04:39:13.106Z,90.11
2019-05-17T04:43:13.854Z,89.61
2019-05-17T04:47:15.935Z,89.65
2019-05-17T04:51:17.840Z,89.47
2019-05-17T04:55:22.827Z,89.53
2019-05-17T04:59:24.299Z,89.36
2019-05-17T05:03:26.516Z,89.22
2019-05-17T05:07:29.506Z,88.47
2019-05-17T05:11:32.869Z,88.59
2019-05-17T05:15:44.924Z,88.61
2019-05-17T05:19:46.858Z,88.31
2019-05-17T05:23:48.754Z,88.17
2019-05-17T05:27:51.648Z,87.05
2019-05-17T05:31:53.543Z,86.50
2019-05-17T05:35:56.090Z,85.96
2019-05-17T05:40:07.132Z,86.44
2019-05-17T05:44:09.101Z,86.13
2019-05-17T05:48:12.877Z,85.92
2019-05-17T05:52:15.079Z,84.77
2019-05-17T05:56:17.005Z,84.50
2019-05-17T06:00:22.126Z,85.21
2019-05-17T06:04:24.330Z,84.40
2019-05-17T06:08:26.191Z,84.48
2019-05-17T06:12:28.366Z,83.96
2019-05-17T06:16:32.124Z,83.51
2019-05-17T06:20:33.908Z,83.21
2019-05-17T06:24:35.843Z,83.63
2019-05-17T06:28:37.739Z,82.20
2019-05-17T06:32:42.721Z,81.71
2019-05-17T06:36:43.439Z,81.01
2019-05-17T06:40:45.347Z,80.90
2019-05-17T06:44:47.369Z,80.39
2019-05-17T06:48:50.080Z,78.98
2019-05-17T06:52:53.235Z,79.55
2019-05-17T06:56:55.275Z,80.06
2019-05-17T07:00:57.177Z,79.95
2019-05-17T07:05:01.433Z,78.92
2019-05-17T07:09:05.298Z,78.43
2019-05-17T07:13:10.734Z,77.90
2019-05-17T07:17:12.359Z,76.93
2019-05-17T07:21:16.247Z,75.86
2019-05-17T07:25:19.819Z,75.31
2019-05-17T07:29:22.975Z,73.21
2019-05-17T07:33:24.897Z,74.71
2019-05-17T07:37:26.827Z,75.97
2019-05-17T07:41:29.853Z,74.06
2019-05-17T07:45:31.868Z,74.30
2019-05-17T07:49:33.804Z,73.82
2019-05-17T07:53:35.725Z,70.08
2019-05-17T07:57:37.638Z,69.83
2019-05-17T08:01:41.268Z,70.95
2019-05-17T08:05:43.399Z,68.29
2019-05-17T08:09:45.317Z,66.51
2019-05-17T08:13:47.241Z,66.96
2019-05-17T08:17:50.170Z,67.86
2019-05-17T08:21:52.237Z,67.30
2019-05-17T08:25:56.292Z,66.80
2019-05-17T08:29:59.700Z,66.51
2019-05-17T08:34:01.527Z,66.72
2019-05-17T08:38:03.429Z,63.87
2019-05-17T08:42:09.627Z,62.48
2019-05-17T08:46:10.727Z,61.24
2019-05-17T08:50:12.970Z,60.73
2019-05-17T08:54:14.904Z,62.12
2019-05-17T08:58:16.829Z,60.93
2019-05-17T09:02:19.907Z,59.94
2019-05-17T09:06:21.929Z,58.68
2019-05-17T09:10:24.625Z,58.62
2019-05-17T09:14:26.538Z,57.95
2019-05-17T09:18:30.205Z,57.24
2019-05-17T09:22:33.164Z,58.76
2019-05-17T09:26:35.120Z,57.70
2019-05-17T09:30:37.096Z,58.02
2019-05-17T09:34:40.379Z,57.91
2019-05-17T09:38:43.552Z,56.23
2019-05-17T09:42:45.455Z,56.00
2019-05-17T09:46:47.433Z,56.97
2019-05-17T09:50:50.485Z,55.03
2019-05-17T09:54:52.541Z,56.32
2019-05-17T09:58:54.449Z,54.53
2019-05-17T10:02:56.725Z,55.00
2019-05-17T10:06:59.359Z,55.85
2019-05-17T10:11:08.414Z,55.74
2019-05-17T10:15:10.011Z,55.91
2019-05-17T10:19:11.589Z,54.41
2019-05-17T10:23:13.572Z,54.38
2019-05-17T10:27:15.500Z,52.55
2019-05-17T10:31:19.723Z,53.27
2019-05-17T10:35:21.828Z,52.05
2019-05-17T10:39:23.719Z,52.06
2019-05-17T10:43:25.642Z,52.03
2019-05-17T10:47:29.921Z,51.97
2019-05-17T10:51:31.308Z,51.34
2019-05-17T10:55:33.218Z,52.57
2019-05-17T10:59:35.135Z,52.15
2019-05-17T11:03:39.581Z,49.46
2019-05-17T11:07:40.651Z,47.39
2019-05-17T11:11:42.588Z,46.60
2019-05-17T11:15:44.482Z,45.38
2019-05-17T11:19:46.405Z,46.60
2019-05-17T11:23:48.325Z,45.60
2019-05-17T11:27:50.259Z,45.58
2019-05-17T11:31:52.171Z,44.21
2019-05-17T11:35:54.559Z,42.80
2019-05-17T11:39:56.453Z,43.80
2019-05-17T11:43:58.376Z,42.68
2019-05-17T11:48:00.292Z,44.07
2019-05-17T11:52:02.211Z,42.17
2019-05-17T11:56:04.110Z,44.04
2019-05-17T12:00:09.341Z,44.21
2019-05-17T12:04:11.282Z,46.37
2019-05-17T12:08:13.174Z,46.54
2019-05-17T12:12:15.088Z,47.11
2019-05-17T12:16:17.009Z,45.09
2019-05-17T12:20:19.623Z,44.94
2019-05-17T12:24:21.538Z,43.96
2019-05-17T12:28:23.450Z,43.40
2019-05-17T12:32:25.432Z,44.51
2019-05-17T12:36:27.354Z,43.05
2019-05-17T12:40:29.257Z,40.12
2019-05-17T12:44:31.169Z,40.88
2019-05-17T12:48:33.090Z,41.61
2019-05-17T12:52:35.002Z,42.57
2019-05-17T12:56:36.927Z,43.09
2019-05-17T13:00:38.830Z,42.23
2019-05-17T13:04:40.744Z,41.12
2019-05-17T13:08:42.671Z,40.85
2019-05-17T13:12:44.603Z,41.31
2019-05-17T13:16:46.517Z,42.77
2019-05-17T13:20:48.418Z,42.02
2019-05-17T13:24:50.336Z,41.50
2019-05-17T13:28:52.336Z,39.12
2019-05-17T13:32:54.265Z,39.44
2019-05-17T13:36:56.504Z,38.36
2019-05-17T13:40:58.405Z,39.09
2019-05-17T13:45:00.452Z,39.10
2019-05-17T13:49:02.475Z,37.85
2019-05-17T13:53:04.511Z,37.32
2019-05-17T13:57:06.448Z,36.65
2019-05-17T14:01:09.734Z,34.27
2019-05-17T14:05:11.918Z,36.35
2019-05-17T14:09:13.815Z,37.86
2019-05-17T14:13:15.729Z,39.15
2019-05-17T14:17:18.595Z,41.21
2019-05-17T14:21:20.785Z,41.24
2019-05-17T14:25:22.698Z,41.74
2019-05-17T14:29:25.635Z,40.94
2019-05-17T14:33:27.702Z,40.85
2019-05-17T14:37:29.616Z,41.68
2019-05-17T14:41:31.524Z,43.52
2019-05-17T14:45:33.428Z,44.27
2019-05-17T14:49:35.339Z,42.26
2019-05-17T14:53:37.248Z,41.44
2019-05-17T14:57:42.765Z,42.26
2019-05-17T15:01:42.790Z,41.62
2019-05-17T15:05:44.794Z,40.49
2019-05-17T15:09:46.709Z,39.77
2019-05-17T15:13:48.709Z,40.24
2019-05-17T15:17:50.613Z,42.13
2019-05-17T15:21:52.517Z,42.21
2019-05-17T15:25:54.438Z,39.54
2019-05-17T15:29:56.332Z,39.95
2019-05-17T15:33:58.252Z,40.32
2019-05-17T15:38:00.213Z,40.01
2019-05-17T15:42:02.948Z,39.54
2019-05-17T15:46:04.922Z,39.23
2019-05-17T15:50:08.817Z,39.90
2019-05-17T15:54:10.980Z,40.39
2019-05-17T15:58:12.898Z,40.48
2019-05-17T16:02:14.804Z,40.91
2019-05-17T16:06:16.792Z,40.33
2019-05-17T16:10:20.012Z,41.76
2019-05-17T16:14:21.907Z,40.68
2019-05-17T16:18:23.819Z,41.07
2019-05-17T16:22:25.722Z,40.50
2019-05-17T16:26:27.908Z,41.90
2019-05-17T16:30:29.883Z,42.08
2019-05-17T16:34:31.802Z,42.31
2019-05-17T16:38:33.721Z,42.00
2019-05-17T16:42:35.802Z,43.11
2019-05-17T16:46:37.715Z,42.71
2019-05-17T16:50:39.689Z,42.99
2019-05-17T16:54:41.604Z,43.23
2019-05-17T16:58:44.475Z,43.85
2019-05-17T17:02:46.386Z,43.74
2019-05-17T17:06:48.289Z,43.89
2019-05-17T17:10:50.258Z,43.90
2019-05-17T17:14:52.131Z,45.04
2019-05-17T17:18:54.115Z,46.06
2019-05-17T17:22:57.197Z,46.72
2019-05-17T17:27:00.295Z,48.01
2019-05-17T17:31:02.428Z,49.10
2019-05-17T17:35:06.844Z,49.69
2019-05-17T17:39:08.947Z,49.66
2019-05-17T17:43:11.004Z,51.08
2019-05-17T17:47:12.929Z,51.30
2019-05-17T17:51:14.867Z,52.14
2019-05-17T17:55:16.867Z,52.33
2019-05-17T17:59:18.785Z,52.82
2019-05-17T18:03:20.701Z,53.55
2019-05-17T18:07:23.486Z,53.93
2019-05-17T18:11:25.414Z,54.58
2019-05-17T18:15:34.918Z,55.29
2019-05-17T18:19:36.814Z,55.26
2019-05-17T18:23:38.737Z,55.54
2019-05-17T18:27:40.728Z,56.25
2019-05-17T18:31:42.641Z,56.94
2019-05-17T18:35:44.701Z,57.47
2019-05-17T18:39:46.614Z,57.96
2019-05-17T18:43:50.171Z,57.94
2019-05-17T18:47:52.364Z,58.25
2019-05-17T18:51:54.314Z,58.76
2019-05-17T18:55:56.247Z,58.91
2019-05-17T18:59:58.186Z,59.45
2019-05-17T19:04:00.099Z,59.85
2019-05-17T19:08:02.342Z,60.07
2019-05-17T19:12:04.393Z,61.00
2019-05-17T19:16:07.341Z,61.21
2019-05-17T19:20:09.680Z,61.92
2019-05-17T19:24:11.573Z,62.37
2019-05-17T19:28:13.490Z,62.49
2019-05-17T19:32:15.494Z,63.18
2019-05-17T19:36:17.397Z,64.46
2019-05-17T19:40:19.524Z,65.14
2019-05-17T19:44:21.444Z,65.84
2019-05-17T19:48:23.349Z,66.74
2019-05-17T19:52:25.313Z,67.09
2019-05-17T19:56:27.235Z,67.03
2019-05-17T20:00:29.763Z,67.14
2019-05-17T20:04:31.704Z,67.24
2019-05-17T20:08:33.783Z,67.61
2019-05-17T20:12:35.696Z,67.95
2019-05-17T20:16:37.686Z,68.05
2019-05-17T20:20:39.597Z,68.41
2019-05-17T20:24:41.516Z,68.80
2019-05-17T20:28:43.497Z,69.04
2019-05-17T20:32:45.509Z,69.40
2019-05-17T20:36:47.412Z,69.66
2019-05-17T20:40:49.388Z,70.56
2019-05-17T20:44:51.311Z,70.67
2019-05-17T20:48:54.904Z,70.89
2019-05-17T20:52:56.814Z,70.86
2019-05-17T20:56:58.721Z,71.13
2019-05-17T21:01:00.654Z,71.40
2019-05-17T21:05:02.733Z,71.63
2019-05-17T21:09:06.740Z,71.95
2019-05-17T21:13:08.645Z,72.11
2019-05-17T21:17:10.597Z,72.60
2019-05-17T21:21:12.563Z,72.95
2019-05-17T21:25:14.707Z,73.07
2019-05-17T21:29:16.645Z,73.20
2019-05-17T21:33:18.524Z,74.23
2019-05-17T21:37:20.535Z,74.52
2019-05-17T21:41:22.511Z,74.42
2019-05-17T21:45:24.431Z,74.36
2019-05-17T21:49:26.322Z,74.66
2019-05-17T21:53:28.254Z,74.72
2019-05-17T21:57:30.149Z,75.00
2019-05-17T22:01:34.753Z,75.56
2019-05-17T22:05:36.650Z,75.92
2019-05-17T22:09:39.517Z,75.94
2019-05-17T22:13:41.428Z,76.21
2019-05-17T22:17:43.320Z,76.40
2019-05-17T22:21:45.239Z,77.04
2019-05-17T22:25:47.196Z,77.40
2019-05-17T22:29:49.106Z,76.83
2019-05-17T22:33:50.986Z,76.72
2019-05-17T22:37:52.906Z,77.61
2019-05-17T22:41:54.783Z,77.58
2019-05-17T22:45:56.805Z,77.21
2019-05-17T22:49:58.694Z,77.27
2019-05-17T22:54:00.613Z,77.26
2019-05-17T22:58:02.535Z,77.91
2019-05-17T23:02:05.510Z,77.78
2019-05-17T23:06:07.539Z,77.78
2019-05-17T23:10:09.625Z,78.34
2019-05-17T23:14:11.538Z,78.16
2019-05-17T23:18:13.459Z,78.04
2019-05-17T23:22:15.347Z,77.92
2019-05-17T23:26:17.249Z,78.49
2019-05-17T23:30:19.213Z,79.04
2019-05-17T23:34:21.159Z,78.62
2019-05-17T23:38:23.056Z,78.84
2019-05-17T23:42:24.944Z,79.21
2019-05-17T23:46:26.843Z,79.04
2019-05-17T23:50:28.749Z,79.08
2019-05-17T23:54:30.636Z,78.75
2019-05-17T23:58:32.542Z,79.29
